createdAt,value
2019-04-07T00:00:01.329Z,11.02
2019-04-07T00:01:01.310Z,11.03
2019-04-07T00:02:01.363Z,11.04
2019-04-07T00:03:01.477Z,11.03
2019-04-07T00:04:05.486Z,11
2019-04-07T00:05:15.092Z,10.98
2019-04-07T00:06:01.520Z,10.96
2019-04-07T00:07:01.538Z,10.96
2019-04-07T00:08:01.954Z,10.94
2019-04-07T00:09:01.963Z,10.97
2019-04-07T00:10:02.033Z,10.97
2019-04-07T00:11:01.609Z,10.97
2019-04-07T00:12:02.057Z,10.97
2019-04-07T00:13:01.400Z,10.97
2019-04-07T00:14:01.332Z,10.97
2019-04-07T00:15:01.340Z,10.96
2019-04-07T00:16:02.241Z,10.96
2019-04-07T00:17:02.037Z,10.95
2019-04-07T00:18:01.288Z,10.95
2019-04-07T00:19:01.840Z,10.95
2019-04-07T00:20:01.364Z,10.94
2019-04-07T00:21:01.751Z,10.95
2019-04-07T00:22:01.306Z,10.91
2019-04-07T00:23:01.306Z,10.93
2019-04-07T00:24:03.469Z,10.94
2019-04-07T00:25:02.779Z,10.95
2019-04-07T00:26:02.476Z,10.95
2019-04-07T00:27:01.600Z,10.9
2019-04-07T00:28:02.597Z,10.89
2019-04-07T00:29:01.918Z,10.85
2019-04-07T00:30:02.381Z,10.85
2019-04-07T00:31:02.723Z,10.83
2019-04-07T00:32:01.316Z,10.84
2019-04-07T00:33:02.082Z,10.83
2019-04-07T00:34:01.837Z,10.79
2019-04-07T00:35:01.285Z,10.81
2019-04-07T00:36:01.320Z,10.8
2019-04-07T00:37:01.349Z,10.77
2019-04-07T00:38:02.434Z,10.76
2019-04-07T00:39:01.804Z,10.74
2019-04-07T00:40:01.302Z,10.73
2019-04-07T00:41:01.674Z,10.73
2019-04-07T00:42:02.059Z,10.71
2019-04-07T00:43:01.299Z,10.69
2019-04-07T00:44:02.344Z,10.69
2019-04-07T00:45:03.704Z,10.69
2019-04-07T00:46:01.570Z,10.69
2019-04-07T00:47:01.233Z,10.68
2019-04-07T00:48:01.587Z,10.66
2019-04-07T00:49:03.153Z,10.65
2019-04-07T00:50:01.714Z,10.64
2019-04-07T00:51:01.709Z,10.64
2019-04-07T00:52:01.453Z,10.64
2019-04-07T00:53:01.518Z,10.63
2019-04-07T00:54:02.463Z,10.63
2019-04-07T00:55:02.482Z,10.64
2019-04-07T00:56:01.499Z,10.64
2019-04-07T00:57:01.393Z,10.64
2019-04-07T00:58:01.297Z,10.65
2019-04-07T00:59:03.024Z,10.6
2019-04-07T01:00:02.655Z,10.57
2019-04-07T01:01:01.236Z,10.56
2019-04-07T01:02:01.677Z,10.54
2019-04-07T01:03:02.152Z,10.52
2019-04-07T01:04:01.353Z,10.52
2019-04-07T01:05:02.745Z,10.51
2019-04-07T01:06:01.395Z,10.5
2019-04-07T01:07:01.236Z,10.46
2019-04-07T01:08:01.959Z,10.45
2019-04-07T01:09:02.004Z,10.41
2019-04-07T01:10:03.779Z,10.4
2019-04-07T01:11:01.568Z,10.39
2019-04-07T01:12:01.378Z,10.37
2019-04-07T01:13:01.271Z,10.37
2019-04-07T01:14:01.794Z,10.34
2019-04-07T01:15:01.251Z,10.33
2019-04-07T01:16:01.593Z,10.32
2019-04-07T01:17:01.263Z,10.3
2019-04-07T01:18:01.345Z,10.3
2019-04-07T01:19:01.198Z,10.29
2019-04-07T01:20:01.387Z,10.26
2019-04-07T01:21:02.466Z,10.24
2019-04-07T01:22:01.374Z,10.21
2019-04-07T01:23:03.090Z,10.2
2019-04-07T01:24:01.248Z,10.2
2019-04-07T01:25:01.290Z,10.19
2019-04-07T01:26:01.242Z,10.17
2019-04-07T01:27:01.189Z,10.17
2019-04-07T01:28:01.197Z,10.17
2019-04-07T01:29:01.697Z,10.15
2019-04-07T01:30:03.040Z,10.13
2019-04-07T01:31:01.227Z,10.16
2019-04-07T01:32:01.204Z,10.14
2019-04-07T01:33:01.196Z,10.14
2019-04-07T01:34:01.243Z,10.13
2019-04-07T01:35:01.524Z,10.11
2019-04-07T01:36:01.207Z,10.07
2019-04-07T01:37:01.279Z,10.09
2019-04-07T01:38:03.792Z,10.03
2019-04-07T01:39:01.768Z,10.04
2019-04-07T01:40:03.322Z,10.01
2019-04-07T01:41:01.204Z,10
2019-04-07T01:42:01.892Z,9.94
2019-04-07T01:43:01.294Z,9.92
2019-04-07T01:44:01.227Z,9.88
2019-04-07T01:45:01.863Z,9.88
2019-04-07T01:46:02.302Z,9.84
2019-04-07T01:47:01.594Z,9.87
2019-04-07T01:48:01.303Z,9.84
2019-04-07T01:49:01.273Z,9.85
2019-04-07T01:50:01.198Z,9.83
2019-04-07T01:51:01.696Z,9.83
2019-04-07T01:52:01.975Z,9.82
2019-04-07T01:53:01.211Z,9.77
2019-04-07T01:54:01.140Z,9.72
2019-04-07T01:55:01.245Z,9.71
2019-04-07T01:56:02.038Z,9.63
2019-04-07T01:57:01.620Z,9.64
2019-04-07T01:58:01.187Z,9.62
2019-04-07T01:59:01.799Z,9.59
2019-04-07T02:00:03.091Z,9.61
2019-04-07T02:01:02.074Z,9.58
2019-04-07T02:02:02.314Z,9.56
2019-04-07T02:03:01.221Z,9.55
2019-04-07T02:04:01.962Z,9.56
2019-04-07T02:05:01.161Z,9.55
2019-04-07T02:06:07.067Z,9.55
2019-04-07T02:07:02.010Z,9.51
2019-04-07T02:08:01.689Z,9.49
2019-04-07T02:09:03.001Z,9.41
2019-04-07T02:10:01.176Z,9.4
2019-04-07T02:11:01.537Z,9.41
2019-04-07T02:12:03.633Z,9.39
2019-04-07T02:13:02.322Z,9.42
2019-04-07T02:14:01.211Z,9.43
2019-04-07T02:15:01.262Z,9.42
2019-04-07T02:16:01.111Z,9.42
2019-04-07T02:17:02.013Z,9.39
2019-04-07T02:18:01.132Z,9.37
2019-04-07T02:19:02.066Z,9.37
2019-04-07T02:20:01.577Z,9.35
2019-04-07T02:21:01.099Z,9.3
2019-04-07T02:22:01.137Z,9.28
2019-04-07T02:23:01.128Z,9.23
2019-04-07T02:24:03.909Z,9.22
2019-04-07T02:25:02.006Z,9.22
2019-04-07T02:26:01.157Z,9.18
2019-04-07T02:27:01.149Z,9.19
2019-04-07T02:28:01.393Z,9.21
2019-04-07T02:29:01.798Z,9.19
2019-04-07T02:30:01.154Z,9.18
2019-04-07T02:31:01.256Z,9.19
2019-04-07T02:32:01.827Z,9.18
2019-04-07T02:33:02.558Z,9.19
2019-04-07T02:34:01.126Z,9.18
2019-04-07T02:35:02.214Z,9.19
2019-04-07T02:36:32.207Z,9.19
2019-04-07T02:37:02.968Z,9.19
2019-04-07T02:38:02.587Z,9.19
2019-04-07T02:39:01.330Z,9.22
2019-04-07T02:40:06.560Z,9.2
2019-04-07T02:41:02.196Z,9.23
2019-04-07T02:42:01.185Z,9.21
2019-04-07T02:43:03.485Z,9.21
2019-04-07T02:44:03.134Z,9.19
2019-04-07T02:45:01.859Z,9.17
2019-04-07T02:46:01.149Z,9.17
2019-04-07T02:47:01.139Z,9.14
2019-04-07T02:48:01.647Z,9.13
2019-04-07T02:49:02.153Z,9.12
2019-04-07T02:50:04.072Z,9.12
2019-04-07T02:51:01.595Z,9.12
2019-04-07T02:52:01.138Z,9.1
2019-04-07T02:53:03.614Z,9.09
2019-04-07T02:54:01.113Z,9.1
2019-04-07T02:55:02.903Z,9.07
2019-04-07T02:56:03.635Z,9.07
2019-04-07T02:57:01.110Z,9.07
2019-04-07T02:58:03.203Z,9.07
2019-04-07T02:59:02.159Z,9.06
2019-04-07T03:00:01.532Z,9.05
2019-04-07T03:01:04.029Z,9.05
2019-04-07T03:02:01.371Z,9.04
2019-04-07T03:03:01.973Z,9.05
2019-04-07T03:04:05.306Z,9.04
2019-04-07T03:05:02.642Z,9.05
2019-04-07T03:06:02.313Z,9.06
2019-04-07T03:07:01.149Z,9.06
2019-04-07T03:08:01.958Z,9.07
2019-04-07T03:09:01.070Z,9.06
2019-04-07T03:10:01.208Z,9.09
2019-04-07T03:11:02.396Z,9.07
2019-04-07T03:12:05.433Z,9.09
2019-04-07T03:13:01.415Z,9.09
2019-04-07T03:14:01.075Z,9.06
2019-04-07T03:15:01.103Z,9.05
2019-04-07T03:16:02.412Z,9.05
2019-04-07T03:17:02.726Z,9.04
2019-04-07T03:18:01.204Z,9.05
2019-04-07T03:19:02.152Z,9.05
2019-04-07T03:20:01.115Z,9.05
2019-04-07T03:21:02.664Z,9.05
2019-04-07T03:22:01.479Z,9.03
2019-04-07T03:23:03.758Z,9.02
2019-04-07T03:24:01.074Z,9
2019-04-07T03:25:01.083Z,8.99
2019-04-07T03:26:02.579Z,8.97
2019-04-07T03:27:01.216Z,8.94
2019-04-07T03:28:01.790Z,8.94
2019-04-07T03:29:01.599Z,8.93
2019-04-07T03:30:06.698Z,8.92
2019-04-07T03:31:10.230Z,8.92
2019-04-07T03:32:23.832Z,8.9
2019-04-07T03:33:25.913Z,8.9
2019-04-07T03:34:09.813Z,8.88
2019-04-07T03:35:07.741Z,8.86
2019-04-07T03:36:28.154Z,8.87
2019-04-07T03:38:02.272Z,8.87
2019-04-07T03:39:03.732Z,8.85
2019-04-07T03:40:05.056Z,8.88
2019-04-07T03:41:01.040Z,8.86
2019-04-07T03:42:01.442Z,8.85
2019-04-07T03:43:01.898Z,8.86
2019-04-07T03:44:01.669Z,8.85
2019-04-07T03:45:01.505Z,8.84
2019-04-07T03:46:01.276Z,8.85
2019-04-07T03:47:01.841Z,8.83
2019-04-07T03:48:02.510Z,8.86
2019-04-07T03:49:02.266Z,8.86
2019-04-07T03:50:04.309Z,8.86
2019-04-07T03:51:01.848Z,8.88
2019-04-07T03:52:05.947Z,8.87
2019-04-07T03:53:03.246Z,8.89
2019-04-07T03:54:01.057Z,8.87
2019-04-07T03:55:01.689Z,8.87
2019-04-07T03:56:02.280Z,8.88
2019-04-07T03:57:01.113Z,8.9
2019-04-07T03:58:01.934Z,8.89
2019-04-07T03:59:01.164Z,8.9
2019-04-07T04:00:02.671Z,8.87
2019-04-07T04:01:01.103Z,8.9
2019-04-07T04:02:01.195Z,8.89
2019-04-07T04:03:01.010Z,8.92
2019-04-07T04:04:02.531Z,8.93
2019-04-07T04:05:01.215Z,8.95
2019-04-07T04:06:01.064Z,8.93
2019-04-07T04:08:02.381Z,8.96
2019-04-07T04:09:02.419Z,8.97
2019-04-07T04:10:01.504Z,8.97
2019-04-07T04:11:04.134Z,8.97
2019-04-07T04:12:01.690Z,8.97
2019-04-07T04:13:01.320Z,8.99
2019-04-07T04:14:03.165Z,9
2019-04-07T04:15:03.987Z,9
2019-04-07T04:16:01.300Z,9.02
2019-04-07T04:17:02.391Z,9.01
2019-04-07T04:18:01.476Z,9.02
2019-04-07T04:19:02.356Z,9.02
2019-04-07T04:20:01.001Z,9.01
2019-04-07T04:21:01.786Z,9.03
2019-04-07T04:22:02.462Z,9.04
2019-04-07T04:23:01.106Z,9.04
2019-04-07T04:24:01.063Z,9.05
2019-04-07T04:25:01.582Z,9.05
2019-04-07T04:26:02.744Z,9.06
2019-04-07T04:27:01.474Z,9.06
2019-04-07T04:28:01.741Z,9.06
2019-04-07T04:29:04.315Z,9.08
2019-04-07T04:30:01.255Z,9.06
2019-04-07T04:31:01.115Z,9.07
2019-04-07T04:32:02.031Z,9.07
2019-04-07T04:33:02.579Z,9.1
2019-04-07T04:34:02.138Z,9.1
2019-04-07T04:35:01.726Z,9.08
2019-04-07T04:36:00.975Z,9.11
2019-04-07T04:37:02.084Z,9.11
2019-04-07T04:38:02.416Z,9.11
2019-04-07T04:39:01.043Z,9.14
2019-04-07T04:40:05.185Z,9.14
2019-04-07T04:41:03.273Z,9.11
2019-04-07T04:42:01.250Z,9.11
2019-04-07T04:43:03.099Z,9.11
2019-04-07T04:44:02.242Z,9.11
2019-04-07T04:45:04.374Z,9.11
2019-04-07T04:46:01.737Z,9.11
2019-04-07T04:47:03.115Z,9.11
2019-04-07T04:48:00.977Z,9.1
2019-04-07T04:49:00.966Z,9.11
2019-04-07T04:50:06.080Z,9.13
2019-04-07T04:51:01.018Z,9.12
2019-04-07T04:52:01.080Z,9.15
2019-04-07T04:53:02.150Z,9.14
2019-04-07T04:54:02.156Z,9.13
2019-04-07T04:55:02.393Z,9.12
2019-04-07T04:56:01.354Z,9.11
2019-04-07T04:57:09.715Z,9.14
2019-04-07T04:58:00.967Z,9.13
2019-04-07T04:59:01.164Z,9.14
2019-04-07T05:00:02.564Z,9.12
2019-04-07T05:01:04.688Z,9.12
2019-04-07T05:02:01.743Z,9.15
2019-04-07T05:03:01.304Z,9.15
2019-04-07T05:04:01.103Z,9.13
2019-04-07T05:05:04.235Z,9.15
2019-04-07T05:06:04.048Z,9.12
2019-04-07T05:07:01.755Z,9.13
2019-04-07T05:08:07.056Z,9.14
2019-04-07T05:09:02.383Z,9.16
2019-04-07T05:10:01.880Z,9.12
2019-04-07T05:11:01.979Z,9.15
2019-04-07T05:12:00.960Z,9.12
2019-04-07T05:13:01.690Z,9.14
2019-04-07T05:14:01.070Z,9.12
2019-04-07T05:15:02.004Z,9.14
2019-04-07T05:16:01.370Z,9.14
2019-04-07T05:17:01.399Z,9.11
2019-04-07T05:18:01.927Z,9.11
2019-04-07T05:19:00.995Z,9.09
2019-04-07T05:20:01.412Z,9.08
2019-04-07T05:21:01.012Z,9.09
2019-04-07T05:22:02.618Z,9.07
2019-04-07T05:23:02.703Z,9.09
2019-04-07T05:24:01.638Z,9.07
2019-04-07T05:25:01.167Z,9.09
2019-04-07T05:26:00.940Z,9.09
2019-04-07T05:27:01.823Z,9.1
2019-04-07T05:28:01.433Z,9.1
2019-04-07T05:29:01.622Z,9.11
2019-04-07T05:30:03.449Z,9.11
2019-04-07T05:31:00.911Z,9.12
2019-04-07T05:32:01.975Z,9.15
2019-04-07T05:33:01.166Z,9.15
2019-04-07T05:34:01.934Z,9.15
2019-04-07T05:35:01.311Z,9.16
2019-04-07T05:36:01.053Z,9.17
2019-04-07T05:37:02.466Z,9.17
2019-04-07T05:38:09.554Z,9.18
2019-04-07T05:39:01.222Z,9.18
2019-04-07T05:40:05.923Z,9.19
2019-04-07T05:41:00.881Z,9.23
2019-04-07T05:42:02.180Z,9.24
2019-04-07T05:43:02.227Z,9.26
2019-04-07T05:44:01.582Z,9.25
2019-04-07T05:45:00.973Z,9.26
2019-04-07T05:46:01.774Z,9.29
2019-04-07T05:47:01.804Z,9.29
2019-04-07T05:48:00.923Z,9.3
2019-04-07T05:49:01.027Z,9.3
2019-04-07T05:50:06.567Z,9.32
2019-04-07T05:51:01.398Z,9.33
2019-04-07T05:52:07.000Z,9.31
2019-04-07T05:53:00.823Z,9.32
2019-04-07T05:54:01.531Z,9.35
2019-04-07T05:55:02.645Z,9.34
2019-04-07T05:56:01.999Z,9.37
2019-04-07T05:57:02.893Z,9.38
2019-04-07T05:58:08.721Z,9.39
2019-04-07T05:59:02.843Z,9.41
2019-04-07T06:00:02.716Z,9.42
2019-04-07T06:01:00.821Z,9.43
2019-04-07T06:02:04.402Z,9.45
2019-04-07T06:03:09.655Z,9.44
2019-04-07T06:04:02.793Z,9.48
2019-04-07T06:05:01.560Z,9.49
2019-04-07T06:06:00.963Z,9.49
2019-04-07T06:07:00.951Z,9.51
2019-04-07T06:09:00.905Z,9.54
2019-04-07T06:10:02.661Z,9.57
2019-04-07T06:11:02.743Z,9.55
2019-04-07T06:12:10.882Z,9.56
2019-04-07T06:13:00.852Z,9.59
2019-04-07T06:14:01.948Z,9.6
2019-04-07T06:15:00.825Z,9.61
2019-04-07T06:16:00.848Z,9.64
2019-04-07T06:17:01.167Z,9.66
2019-04-07T06:18:02.810Z,9.67
2019-04-07T06:19:09.162Z,9.68
2019-04-07T06:20:03.753Z,9.69
2019-04-07T06:21:01.220Z,9.72
2019-04-07T06:22:02.533Z,9.72
2019-04-07T06:23:00.803Z,9.73
2019-04-07T06:24:01.032Z,9.77
2019-04-07T06:25:07.421Z,9.75
2019-04-07T06:26:00.893Z,9.78
2019-04-07T06:27:01.122Z,9.79
2019-04-07T06:28:00.783Z,9.82
2019-04-07T06:29:02.756Z,9.81
2019-04-07T06:30:01.200Z,9.83
2019-04-07T06:31:03.488Z,9.84
2019-04-07T06:32:11.539Z,9.85
2019-04-07T06:33:07.418Z,9.85
2019-04-07T06:34:00.906Z,9.87
2019-04-07T06:35:02.866Z,9.87
2019-04-07T06:36:00.787Z,9.9
2019-04-07T06:37:00.894Z,9.9
2019-04-07T06:38:09.187Z,9.92
2019-04-07T06:39:01.716Z,9.92
2019-04-07T06:40:01.585Z,9.95
2019-04-07T06:41:03.647Z,9.96
2019-04-07T06:42:03.705Z,9.96
2019-04-07T06:43:07.640Z,9.98
2019-04-07T06:44:24.411Z,10.01
2019-04-07T06:45:02.038Z,10
2019-04-07T06:46:00.726Z,10.03
2019-04-07T06:47:04.936Z,10.05
2019-04-07T06:48:11.492Z,10.08
2019-04-07T06:49:02.803Z,10.08
2019-04-07T06:50:00.900Z,10.1
2019-04-07T06:51:04.093Z,10.11
2019-04-07T06:52:05.108Z,10.11
2019-04-07T06:53:00.912Z,10.12
2019-04-07T06:54:02.540Z,10.15
2019-04-07T06:55:00.742Z,10.15
2019-04-07T06:56:06.224Z,10.17
2019-04-07T06:57:07.574Z,10.2
2019-04-07T06:58:02.301Z,10.19
2019-04-07T06:59:00.917Z,10.22
2019-04-07T07:00:01.309Z,10.25
2019-04-07T07:01:03.660Z,10.27
2019-04-07T07:02:00.943Z,10.28
2019-04-07T07:03:04.631Z,10.27
2019-04-07T07:04:02.244Z,10.28
2019-04-07T07:05:00.732Z,10.29
2019-04-07T07:06:01.583Z,10.29
2019-04-07T07:07:01.268Z,10.31
2019-04-07T07:08:02.020Z,10.33
2019-04-07T07:09:03.125Z,10.34
2019-04-07T07:10:06.788Z,10.35
2019-04-07T07:11:02.065Z,10.36
2019-04-07T07:12:01.882Z,10.38
2019-04-07T07:14:00.784Z,10.46
2019-04-07T07:15:04.884Z,10.47
2019-04-07T07:16:17.070Z,10.52
2019-04-07T07:17:00.733Z,10.53
2019-04-07T07:18:00.783Z,10.54
2019-04-07T07:19:02.687Z,10.57
2019-04-07T07:20:06.988Z,10.58
2019-04-07T07:21:05.279Z,10.61
2019-04-07T07:22:02.404Z,10.64
2019-04-07T07:23:01.018Z,10.65
2019-04-07T07:24:01.520Z,10.66
2019-04-07T07:25:01.712Z,10.67
2019-04-07T07:26:04.495Z,10.7
2019-04-07T07:27:12.479Z,10.69
2019-04-07T07:28:01.859Z,10.71
2019-04-07T07:29:01.132Z,10.71
2019-04-07T07:30:01.492Z,10.72
2019-04-07T07:31:01.193Z,10.72
2019-04-07T07:32:05.151Z,10.72
2019-04-07T07:33:00.941Z,10.71
2019-04-07T07:34:00.746Z,10.72
2019-04-07T07:35:00.717Z,10.72
2019-04-07T07:36:02.372Z,10.73
2019-04-07T07:37:00.760Z,10.76
2019-04-07T07:38:00.674Z,10.77
2019-04-07T07:39:14.682Z,10.77
2019-04-07T07:40:12.074Z,10.78
2019-04-07T07:41:05.015Z,10.81
2019-04-07T07:42:00.690Z,10.83
2019-04-07T07:43:00.784Z,10.83
2019-04-07T07:44:09.955Z,10.87
2019-04-07T07:45:01.734Z,10.89
2019-04-07T07:46:00.708Z,10.9
2019-04-07T07:47:01.406Z,10.91
2019-04-07T07:48:01.874Z,10.95
2019-04-07T07:49:02.437Z,10.97
2019-04-07T07:50:09.111Z,11
2019-04-07T07:51:07.018Z,11.02
2019-04-07T07:52:01.625Z,11.03
2019-04-07T07:53:01.612Z,11.08
2019-04-07T07:54:02.337Z,11.1
2019-04-07T07:55:04.149Z,11.15
2019-04-07T07:56:11.974Z,11.18
2019-04-07T07:57:02.633Z,11.22
2019-04-07T07:58:01.352Z,11.27
2019-04-07T07:59:06.257Z,11.28
2019-04-07T08:00:08.657Z,11.34
2019-04-07T08:01:01.680Z,11.38
2019-04-07T08:02:03.892Z,11.36
2019-04-07T08:03:00.907Z,11.45
2019-04-07T08:04:01.697Z,11.49
2019-04-07T08:05:00.859Z,11.54
2019-04-07T08:06:08.646Z,11.6
2019-04-07T08:07:02.930Z,11.62
2019-04-07T08:08:01.997Z,11.68
2019-04-07T08:10:03.280Z,11.76
2019-04-07T08:11:03.035Z,11.8
2019-04-07T08:12:04.044Z,11.81
2019-04-07T08:13:09.197Z,11.85
2019-04-07T08:14:01.442Z,11.85
2019-04-07T08:15:00.678Z,11.87
2019-04-07T08:16:00.741Z,11.96
2019-04-07T08:17:04.334Z,11.97
2019-04-07T08:18:09.926Z,11.97
2019-04-07T08:19:01.734Z,12.02
2019-04-07T08:20:02.560Z,12.03
2019-04-07T08:21:00.637Z,12.08
2019-04-07T08:22:03.133Z,12.1
2019-04-07T08:23:00.937Z,12.12
2019-04-07T08:24:02.685Z,12.15
2019-04-07T08:25:02.622Z,12.16
2019-04-07T08:26:00.718Z,12.15
2019-04-07T08:27:00.638Z,12.17
2019-04-07T08:28:05.077Z,12.23
2019-04-07T08:29:15.546Z,12.31
2019-04-07T08:30:14.099Z,12.32
2019-04-07T08:31:01.079Z,12.33
2019-04-07T08:32:00.886Z,12.37
2019-04-07T08:33:03.804Z,12.39
2019-04-07T08:34:04.013Z,12.46
2019-04-07T08:35:08.201Z,12.46
2019-04-07T08:36:01.029Z,12.51
2019-04-07T08:37:01.748Z,12.52
2019-04-07T08:38:04.666Z,12.6
2019-04-07T08:39:01.091Z,12.62
2019-04-07T08:40:09.351Z,12.65
2019-04-07T08:41:16.774Z,12.68
2019-04-07T08:42:01.543Z,12.7
2019-04-07T08:43:01.400Z,12.74
2019-04-07T08:44:00.691Z,12.79
2019-04-07T08:45:03.660Z,12.79
2019-04-07T08:46:06.476Z,12.86
2019-04-07T08:47:02.754Z,12.89
2019-04-07T08:48:01.061Z,12.95
2019-04-07T08:49:00.647Z,12.99
2019-04-07T08:50:00.607Z,13.02
2019-04-07T08:51:01.331Z,13.08
2019-04-07T08:52:12.967Z,13.05
2019-04-07T08:53:00.600Z,13.06
2019-04-07T08:54:00.630Z,13.1
2019-04-07T08:55:00.612Z,13.09
2019-04-07T08:56:00.674Z,13.13
2019-04-07T08:57:00.840Z,13.14
2019-04-07T08:58:06.830Z,13.17
2019-04-07T08:59:00.564Z,13.18
2019-04-07T09:00:00.700Z,13.2
2019-04-07T09:01:00.601Z,13.23
2019-04-07T09:02:00.662Z,13.25
2019-04-07T09:03:17.298Z,13.29
2019-04-07T09:04:01.681Z,13.29
2019-04-07T09:05:02.963Z,13.39
2019-04-07T09:06:01.302Z,13.41
2019-04-07T09:07:05.352Z,13.46
2019-04-07T09:08:07.705Z,13.5
2019-04-07T09:09:00.738Z,13.52
2019-04-07T09:10:01.325Z,13.57
2019-04-07T09:11:00.678Z,13.6
2019-04-07T09:12:01.894Z,13.63
2019-04-07T09:13:10.570Z,13.65
2019-04-07T09:14:00.594Z,13.71
2019-04-07T09:15:13.214Z,13.73
2019-04-07T09:16:00.543Z,13.76
2019-04-07T09:17:00.617Z,13.74
2019-04-07T09:18:01.174Z,13.75
2019-04-07T09:19:09.691Z,13.81
2019-04-07T09:20:10.967Z,13.84
2019-04-07T09:21:01.060Z,13.86
2019-04-07T09:22:00.877Z,13.89
2019-04-07T09:23:01.596Z,13.91
2019-04-07T09:24:00.794Z,13.94
2019-04-07T09:25:11.983Z,13.91
2019-04-07T09:26:00.553Z,13.82
2019-04-07T09:27:02.223Z,13.71
2019-04-07T09:28:02.192Z,13.72
2019-04-07T09:29:01.273Z,13.77
2019-04-07T09:30:10.963Z,13.85
2019-04-07T09:31:04.885Z,13.77
2019-04-07T09:32:00.611Z,13.77
2019-04-07T09:33:01.573Z,13.79
2019-04-07T09:34:01.570Z,13.79
2019-04-07T09:35:02.063Z,13.78
2019-04-07T09:36:00.898Z,13.76
2019-04-07T09:37:00.668Z,13.8
2019-04-07T09:38:00.665Z,13.92
2019-04-07T09:39:04.391Z,13.99
2019-04-07T09:40:06.986Z,14.08
2019-04-07T09:41:01.732Z,14.14
2019-04-07T09:42:02.081Z,14.14
2019-04-07T09:43:01.565Z,14.21
2019-04-07T09:44:05.417Z,14.28
2019-04-07T09:45:00.686Z,14.21
2019-04-07T09:46:00.550Z,14.15
2019-04-07T09:47:01.037Z,14.16
2019-04-07T09:48:00.861Z,14.22
2019-04-07T09:49:02.251Z,14.29
2019-04-07T09:50:04.558Z,14.34
2019-04-07T09:51:08.786Z,14.36
2019-04-07T09:52:01.287Z,14.41
2019-04-07T09:53:01.431Z,14.45
2019-04-07T09:54:00.560Z,14.45
2019-04-07T09:55:01.713Z,14.43
2019-04-07T09:56:03.934Z,14.28
2019-04-07T09:57:07.585Z,14.17
2019-04-07T09:58:01.586Z,14.07
2019-04-07T09:59:00.537Z,14.05
2019-04-07T10:00:02.041Z,14.11
2019-04-07T10:01:00.543Z,14.15
2019-04-07T10:02:06.878Z,14.24
2019-04-07T10:03:16.462Z,14.3
2019-04-07T10:04:00.507Z,14.36
2019-04-07T10:05:00.522Z,14.41
2019-04-07T10:06:01.005Z,14.51
2019-04-07T10:07:04.873Z,14.56
2019-04-07T10:08:00.594Z,14.64
2019-04-07T10:09:02.306Z,14.69
2019-04-07T10:10:17.119Z,14.68
2019-04-07T10:11:00.922Z,14.67
2019-04-07T10:12:00.621Z,14.7
2019-04-07T10:13:00.940Z,14.72
2019-04-07T10:14:03.194Z,14.67
2019-04-07T10:15:00.527Z,14.56
2019-04-07T10:16:01.251Z,14.56
2019-04-07T10:17:01.371Z,14.47
2019-04-07T10:18:00.733Z,14.44
2019-04-07T10:19:00.947Z,14.46
2019-04-07T10:20:02.459Z,14.53
2019-04-07T10:21:01.786Z,14.59
2019-04-07T10:22:03.745Z,14.67
2019-04-07T10:23:02.897Z,14.72
2019-04-07T10:24:01.006Z,14.73
2019-04-07T10:25:00.591Z,14.69
2019-04-07T10:26:01.589Z,14.73
2019-04-07T10:27:01.630Z,14.79
2019-04-07T10:28:00.815Z,14.87
2019-04-07T10:29:00.821Z,14.91
2019-04-07T10:30:00.741Z,14.93
2019-04-07T10:31:00.455Z,14.98
2019-04-07T10:32:01.415Z,14.98
2019-04-07T10:33:03.229Z,15.01
2019-04-07T10:34:00.521Z,15.07
2019-04-07T10:35:02.599Z,15.13
2019-04-07T10:36:00.472Z,15.21
2019-04-07T10:37:05.272Z,15.28
2019-04-07T10:38:02.212Z,15.31
2019-04-07T10:39:01.829Z,15.33
2019-04-07T10:40:20.384Z,15.36
2019-04-07T10:41:02.185Z,15.38
2019-04-07T10:42:02.549Z,15.4
2019-04-07T10:43:01.611Z,15.41
2019-04-07T10:44:01.903Z,15.47
2019-04-07T10:45:00.822Z,15.49
2019-04-07T10:46:00.571Z,15.54
2019-04-07T10:47:01.604Z,15.54
2019-04-07T10:48:02.591Z,15.58
2019-04-07T10:49:01.562Z,15.53
2019-04-07T10:50:09.887Z,15.52
2019-04-07T10:51:00.473Z,15.49
2019-04-07T10:52:01.379Z,15.46
2019-04-07T10:53:00.544Z,15.49
2019-04-07T10:54:00.467Z,15.48
2019-04-07T10:55:01.387Z,15.53
2019-04-07T10:56:02.402Z,15.54
2019-04-07T10:57:01.236Z,15.56
2019-04-07T10:58:00.520Z,15.55
2019-04-07T10:59:00.497Z,15.59
2019-04-07T11:00:01.614Z,15.64
2019-04-07T11:01:01.166Z,15.69
2019-04-07T11:02:02.546Z,15.69
2019-04-07T11:03:01.975Z,15.71
2019-04-07T11:04:00.468Z,15.7
2019-04-07T11:05:01.853Z,15.72
2019-04-07T11:06:01.561Z,15.73
2019-04-07T11:07:00.430Z,15.75
2019-04-07T11:08:00.657Z,15.75
2019-04-07T11:09:00.614Z,15.75
2019-04-07T11:10:01.488Z,15.77
2019-04-07T11:11:01.109Z,15.81
2019-04-07T11:12:00.416Z,15.86
2019-04-07T11:13:03.246Z,15.86
2019-04-07T11:14:01.157Z,15.89
2019-04-07T11:15:01.185Z,15.87
2019-04-07T11:16:00.682Z,15.77
2019-04-07T11:17:02.660Z,15.69
2019-04-07T11:18:01.936Z,15.74
2019-04-07T11:19:00.460Z,15.8
2019-04-07T11:20:00.437Z,15.83
2019-04-07T11:21:03.469Z,15.89
2019-04-07T11:22:01.388Z,15.98
2019-04-07T11:23:03.125Z,16.05
2019-04-07T11:24:01.470Z,16.13
2019-04-07T11:25:01.331Z,16.2
2019-04-07T11:26:00.830Z,16.25
2019-04-07T11:27:00.450Z,16.31
2019-04-07T11:28:00.409Z,16.39
2019-04-07T11:29:00.400Z,16.44
2019-04-07T11:30:00.732Z,16.49
2019-04-07T11:31:02.398Z,16.56
2019-04-07T11:32:01.524Z,16.59
2019-04-07T11:33:03.576Z,16.64
2019-04-07T11:34:01.121Z,16.69
2019-04-07T11:35:00.450Z,16.69
2019-04-07T11:36:06.162Z,16.65
2019-04-07T11:37:01.809Z,16.72
2019-04-07T11:38:01.529Z,16.75
2019-04-07T11:39:00.795Z,16.79
2019-04-07T11:40:02.370Z,16.69
2019-04-07T11:41:00.506Z,16.71
2019-04-07T11:42:01.300Z,16.63
2019-04-07T11:43:00.772Z,16.55
2019-04-07T11:44:02.182Z,16.59
2019-04-07T11:45:00.488Z,16.67
2019-04-07T11:46:05.806Z,16.8
2019-04-07T11:47:02.349Z,16.83
2019-04-07T11:48:00.543Z,16.92
2019-04-07T11:49:01.063Z,16.96
2019-04-07T11:50:01.568Z,17.03
2019-04-07T11:51:00.368Z,17.04
2019-04-07T11:52:00.433Z,17.05
2019-04-07T11:53:01.931Z,17.1
2019-04-07T11:54:01.871Z,16.99
2019-04-07T11:55:02.523Z,16.93
2019-04-07T11:56:11.826Z,16.87
2019-04-07T11:57:01.101Z,16.93
2019-04-07T11:59:01.571Z,17.13
2019-04-07T12:00:02.610Z,17.17
2019-04-07T12:01:00.468Z,17.23
2019-04-07T12:02:09.057Z,17.26
2019-04-07T12:03:01.041Z,17.29
2019-04-07T12:04:02.738Z,17.18
2019-04-07T12:05:00.473Z,17.12
2019-04-07T12:06:02.729Z,17.13
2019-04-07T12:07:00.456Z,17.09
2019-04-07T12:08:02.126Z,17.08
2019-04-07T12:09:00.569Z,17.03
2019-04-07T12:10:00.436Z,16.99
2019-04-07T12:11:06.865Z,17.03
2019-04-07T12:12:00.447Z,17.02
2019-04-07T12:13:00.596Z,16.99
2019-04-07T12:14:01.288Z,16.95
2019-04-07T12:15:00.470Z,16.92
2019-04-07T12:16:02.280Z,16.96
2019-04-07T12:17:15.185Z,16.96
2019-04-07T12:18:00.697Z,17.02
2019-04-07T12:19:00.611Z,16.91
2019-04-07T12:20:00.601Z,17.06
2019-04-07T12:21:08.920Z,17.17
2019-04-07T12:22:12.792Z,17.28
2019-04-07T12:23:01.693Z,17.45
2019-04-07T12:24:03.455Z,17.56
2019-04-07T12:25:06.963Z,17.63
2019-04-07T12:26:07.632Z,17.7
2019-04-07T12:27:02.228Z,17.76
2019-04-07T12:28:00.383Z,17.81
2019-04-07T12:29:02.675Z,17.85
2019-04-07T12:30:02.679Z,17.9
2019-04-07T12:31:00.348Z,18.02
2019-04-07T12:32:02.595Z,18.04
2019-04-07T12:33:00.443Z,18.1
2019-04-07T12:34:00.424Z,18.15
2019-04-07T12:35:01.342Z,18.16
2019-04-07T12:36:00.394Z,18.16
2019-04-07T12:37:09.103Z,18.2
2019-04-07T12:38:01.411Z,18.22
2019-04-07T12:39:00.361Z,18.29
2019-04-07T12:40:01.565Z,18.35
2019-04-07T12:42:08.939Z,18.37
2019-04-07T12:43:00.648Z,18.4
2019-04-07T12:44:02.843Z,18.43
2019-04-07T12:45:00.431Z,18.45
2019-04-07T12:46:03.630Z,18.49
2019-04-07T12:47:00.405Z,18.47
2019-04-07T12:48:03.460Z,18.45
2019-04-07T12:49:00.439Z,18.36
2019-04-07T12:50:00.393Z,18.4
2019-04-07T12:51:03.215Z,18.36
2019-04-07T12:52:00.457Z,18.42
2019-04-07T12:53:08.146Z,18.44
2019-04-07T12:54:00.543Z,18.36
2019-04-07T12:55:02.006Z,18.2
2019-04-07T12:56:03.360Z,18.25
2019-04-07T12:57:10.677Z,18.37
2019-04-07T12:58:03.204Z,18.43
2019-04-07T12:59:01.626Z,18.3
2019-04-07T13:00:00.368Z,17.96
2019-04-07T13:01:21.323Z,18.06
2019-04-07T13:02:09.439Z,18.07
2019-04-07T13:03:00.367Z,18.11
2019-04-07T13:04:00.434Z,18.23
2019-04-07T13:05:08.860Z,18.25
2019-04-07T13:06:09.697Z,18.27
2019-04-07T13:07:00.309Z,18.24
2019-04-07T13:08:01.691Z,18.26
2019-04-07T13:09:01.205Z,18.27
2019-04-07T13:10:08.644Z,18.33
2019-04-07T13:11:38.410Z,18.35